sensor_id;sensor_type;location;lat;lon;timestamp;temperature;humidity
3186;DHT22;1604;53.700;10.252;2024-03-23T00:55:13;6.30;99.90
3186;DHT22;1604;53.700;10.252;2024-03-23T00:58:15;6.30;99.90
3186;DHT22;1604;53.700;10.252;2024-03-23T01:01:16;6.30;99.90
3186;DHT22;1604;53.700;10.252;2024-03-23T01:04:17;6.20;99.90
3186;DHT22;1604;53.700;10.252;2024-03-23T01:07:18;6.20;99.90
3186;DHT22;1604;53.700;10.252;2024-03-23T01:10:22;6.20;99.90
3186;DHT22;1604;53.700;10.252;2024-03-23T01:13:23;6.20;99.90
3186;DHT22;1604;53.700;10.252;2024-03-23T01:16:24;6.10;99.90
3186;DHT22;1604;53.700;10.252;2024-03-23T01:19:25;6.10;99.90
3186;DHT22;1604;53.700;10.252;2024-03-23T01:22:27;6.10;99.90
3186;DHT22;1604;53.700;10.252;2024-03-23T01:25:30;6.10;99.90
3186;DHT22;1604;53.700;10.252;2024-03-23T01:28:32;6.00;99.90
3186;DHT22;1604;53.700;10.252;2024-03-23T01:31:32;6.00;99.90
3186;DHT22;1604;53.700;10.252;2024-03-23T01:34:34;6.00;99.90
3186;DHT22;1604;53.700;10.252;2024-03-23T01:37:35;6.00;99.90
3186;DHT22;1604;53.700;10.252;2024-03-23T01:40:38;5.90;99.90
3186;DHT22;1604;53.700;10.252;2024-03-23T01:43:40;5.90;99.90
3186;DHT22;1604;53.700;10.252;2024-03-23T01:46:41;5.90;99.90
3186;DHT22;1604;53.700;10.252;2024-03-23T01:49:44;5.90;99.90
3186;DHT22;1604;53.700;10.252;2024-03-23T01:52:45;5.80;99.90
3186;DHT22;1604;53.700;10.252;2024-03-23T01:55:49;5.80;99.90
3186;DHT22;1604;53.700;10.252;2024-03-23T01:58:52;5.80;99.90
3186;DHT22;1604;53.700;10.252;2024-03-23T02:01:53;5.80;99.90
3186;DHT22;1604;53.700;10.252;2024-03-23T02:04:55;5.70;99.90
3186;DHT22;1604;53.700;10.252;2024-03-23T02:07:55;5.70;99.90
3186;DHT22;1604;53.700;10.252;2024-03-23T02:10:59;5.70;99.90
3186;DHT22;1604;53.700;10.252;2024-03-23T02:14:00;5.70;99.90
3186;DHT22;1604;53.700;10.252;2024-03-23T02:17:02;5.70;99.90
3186;DHT22;1604;53.700;10.252;2024-03-23T02:20:05;5.60;99.90
3186;DHT22;1604;53.700;10.252;2024-03-23T02:23:13;5.60;99.90
3186;DHT22;1604;53.700;10.252;2024-03-23T02:26:15;5.60;99.90
3186;DHT22;1604;53.700;10.252;2024-03-23T02:29:17;5.60;99.90
3186;DHT22;1604;53.700;10.252;2024-03-23T02:32:20;5.50;99.90
3186;DHT22;1604;53.700;10.252;2024-03-23T02:35:22;5.50;99.90
3186;DHT22;1604;53.700;10.252;2024-03-23T02:38:24;5.50;99.90
3186;DHT22;1604;53.700;10.252;2024-03-23T02:41:26;5.50;99.90
3186;DHT22;1604;53.700;10.252;2024-03-23T02:44:27;5.40;99.90
3186;DHT22;1604;53.700;10.252;2024-03-23T02:47:29;5.40;99.90
3186;DHT22;1604;53.700;10.252;2024-03-23T02:50:30;5.40;99.90
3186;DHT22;1604;53.700;10.252;2024-03-23T02:53:33;5.30;99.70
3186;DHT22;1604;53.700;10.252;2024-03-23T02:56:34;5.30;99.60
3186;DHT22;1604;53.700;10.252;2024-03-23T02:59:36;5.30;99.50
3186;DHT22;1604;53.700;10.252;2024-03-23T03:02:37;5.30;99.40
3186;DHT22;1604;53.700;10.252;2024-03-23T03:05:39;5.30;99.50
3186;DHT22;1604;53.700;10.252;2024-03-23T03:08:41;5.20;99.40
3186;DHT22;1604;53.700;10.252;2024-03-23T03:11:43;5.20;99.30
3186;DHT22;1604;53.700;10.252;2024-03-23T03:14:45;5.20;99.20
3186;DHT22;1604;53.700;10.252;2024-03-23T03:17:46;5.20;99.20
3186;DHT22;1604;53.700;10.252;2024-03-23T03:20:49;5.20;99.10
3186;DHT22;1604;53.700;10.252;2024-03-23T03:23:52;5.10;98.90
3186;DHT22;1604;53.700;10.252;2024-03-23T03:26:55;5.10;98.80
3186;DHT22;1604;53.700;10.252;2024-03-23T03:29:58;5.10;98.70
3186;DHT22;1604;53.700;10.252;2024-03-23T03:33:00;5.10;98.70
3186;DHT22;1604;53.700;10.252;2024-03-23T03:36:02;5.10;98.60
3186;DHT22;1604;53.700;10.252;2024-03-23T03:39:04;5.10;98.50
3186;DHT22;1604;53.700;10.252;2024-03-23T03:42:07;5.10;98.40
3186;DHT22;1604;53.700;10.252;2024-03-23T03:45:08;5.10;98.30
3186;DHT22;1604;53.700;10.252;2024-03-23T03:48:10;5.10;98.40
3186;DHT22;1604;53.700;10.252;2024-03-23T03:51:12;5.10;98.40
3186;DHT22;1604;53.700;10.252;2024-03-23T03:54:14;5.10;98.30
3186;DHT22;1604;53.700;10.252;2024-03-23T03:57:16;5.10;98.30
3186;DHT22;1604;53.700;10.252;2024-03-23T04:00:18;5.10;98.20
3186;DHT22;1604;53.700;10.252;2024-03-23T04:03:19;5.10;98.20
3186;DHT22;1604;53.700;10.252;2024-03-23T04:06:21;5.00;98.10
3186;DHT22;1604;53.700;10.252;2024-03-23T04:09:23;5.00;98.00
3186;DHT22;1604;53.700;10.252;2024-03-23T04:12:25;5.00;98.10
3186;DHT22;1604;53.700;10.252;2024-03-23T04:15:26;5.00;98.00
3186;DHT22;1604;53.700;10.252;2024-03-23T04:18:28;5.00;98.00
3186;DHT22;1604;53.700;10.252;2024-03-23T04:21:30;5.00;98.00
3186;DHT22;1604;53.700;10.252;2024-03-23T04:24:33;5.00;97.90
3186;DHT22;1604;53.700;10.252;2024-03-23T04:27:34;5.00;97.80
3186;DHT22;1604;53.700;10.252;2024-03-23T04:30:36;5.00;97.80
3186;DHT22;1604;53.700;10.252;2024-03-23T04:33:37;5.00;97.80
3186;DHT22;1604;53.700;10.252;2024-03-23T04:36:39;5.00;97.90
3186;DHT22;1604;53.700;10.252;2024-03-23T04:39:42;4.90;97.80
3186;DHT22;1604;53.700;10.252;2024-03-23T04:42:44;4.90;97.90
3186;DHT22;1604;53.700;10.252;2024-03-23T04:45:46;4.90;97.90
3186;DHT22;1604;53.700;10.252;2024-03-23T04:48:48;4.90;97.80
3186;DHT22;1604;53.700;10.252;2024-03-23T04:51:50;4.90;97.90
3186;DHT22;1604;53.700;10.252;2024-03-23T04:54:53;4.90;97.90
3186;DHT22;1604;53.700;10.252;2024-03-23T04:57:55;4.90;97.90
3186;DHT22;1604;53.700;10.252;2024-03-23T05:00:57;4.90;98.00
3186;DHT22;1604;53.700;10.252;2024-03-23T05:03:58;4.90;97.90
3186;DHT22;1604;53.700;10.252;2024-03-23T05:07:00;4.90;97.90
3186;DHT22;1604;53.700;10.252;2024-03-23T05:10:02;4.90;97.90
3186;DHT22;1604;53.700;10.252;2024-03-23T05:13:05;4.90;97.90
3186;DHT22;1604;53.700;10.252;2024-03-23T05:16:06;4.80;97.90
3186;DHT22;1604;53.700;10.252;2024-03-23T05:19:08;4.80;97.90
3186;DHT22;1604;53.700;10.252;2024-03-23T05:22:09;4.80;97.90
3186;DHT22;1604;53.700;10.252;2024-03-23T05:25:12;4.80;97.90
3186;DHT22;1604;53.700;10.252;2024-03-23T05:28:13;4.80;97.90
3186;DHT22;1604;53.700;10.252;2024-03-23T05:31:23;4.90;97.80
3186;DHT22;1604;53.700;10.252;2024-03-23T05:34:25;4.90;97.80
3186;DHT22;1604;53.700;10.252;2024-03-23T05:37:27;4.90;97.90
3186;DHT22;1604;53.700;10.252;2024-03-23T05:40:29;4.90;97.90
3186;DHT22;1604;53.700;10.252;2024-03-23T05:43:32;4.90;97.90
3186;DHT22;1604;53.700;10.252;2024-03-23T05:46:34;4.90;97.90
3186;DHT22;1604;53.700;10.252;2024-03-23T05:49:35;4.90;97.80
3186;DHT22;1604;53.700;10.252;2024-03-23T05:52:36;5.00;97.60
3186;DHT22;1604;53.700;10.252;2024-03-23T05:55:39;5.00;97.80
3186;DHT22;1604;53.700;10.252;2024-03-23T05:58:41;5.00;97.80
3186;DHT22;1604;53.700;10.252;2024-03-23T06:01:43;5.00;97.80
3186;DHT22;1604;53.700;10.252;2024-03-23T06:04:45;5.00;97.70
3186;DHT22;1604;53.700;10.252;2024-03-23T06:07:47;5.10;97.70
3186;DHT22;1604;53.700;10.252;2024-03-23T06:10:49;5.10;97.70
3186;DHT22;1604;53.700;10.252;2024-03-23T06:13:51;5.10;97.80
3186;DHT22;1604;53.700;10.252;2024-03-23T06:16:52;5.10;97.80
3186;DHT22;1604;53.700;10.252;2024-03-23T06:19:54;5.10;97.80
3186;DHT22;1604;53.700;10.252;2024-03-23T06:22:55;5.20;97.80
3186;DHT22;1604;53.700;10.252;2024-03-23T06:25:58;5.20;97.70
3186;DHT22;1604;53.700;10.252;2024-03-23T06:28:59;5.20;97.70
3186;DHT22;1604;53.700;10.252;2024-03-23T06:32:01;5.30;97.80
3186;DHT22;1604;53.700;10.252;2024-03-23T06:35:02;5.30;97.70
3186;DHT22;1604;53.700;10.252;2024-03-23T06:38:08;5.40;97.70
3186;DHT22;1604;53.700;10.252;2024-03-23T06:41:11;5.40;97.80
3186;DHT22;1604;53.700;10.252;2024-03-23T06:44:13;5.50;97.70
3186;DHT22;1604;53.700;10.252;2024-03-23T06:47:14;5.50;97.80
3186;DHT22;1604;53.700;10.252;2024-03-23T06:50:16;5.60;97.80
3186;DHT22;1604;53.700;10.252;2024-03-23T06:53:17;5.70;98.00
3186;DHT22;1604;53.700;10.252;2024-03-23T06:56:20;5.80;98.10
3186;DHT22;1604;53.700;10.252;2024-03-23T06:59:22;5.80;98.20
3186;DHT22;1604;53.700;10.252;2024-03-23T07:02:24;5.90;98.30
3186;DHT22;1604;53.700;10.252;2024-03-23T07:05:25;6.00;98.30
3186;DHT22;1604;53.700;10.252;2024-03-23T07:08:26;6.10;98.80
3186;DHT22;1604;53.700;10.252;2024-03-23T07:11:29;6.20;99.10
3186;DHT22;1604;53.700;10.252;2024-03-23T07:14:31;6.20;99.50
3186;DHT22;1604;53.700;10.252;2024-03-23T07:17:33;6.30;99.90
3186;DHT22;1604;53.700;10.252;2024-03-23T07:20:35;6.30;99.90
3186;DHT22;1604;53.700;10.252;2024-03-23T07:23:37;6.30;99.90
3186;DHT22;1604;53.700;10.252;2024-03-23T07:26:44;6.30;99.90
3186;DHT22;1604;53.700;10.252;2024-03-23T07:29:45;6.40;99.90
3186;DHT22;1604;53.700;10.252;2024-03-23T07:32:47;6.40;99.90
3186;DHT22;1604;53.700;10.252;2024-03-23T07:35:48;6.50;99.90
3186;DHT22;1604;53.700;10.252;2024-03-23T07:38:50;6.60;99.90
3186;DHT22;1604;53.700;10.252;2024-03-23T07:41:54;6.70;99.90
3186;DHT22;1604;53.700;10.252;2024-03-23T07:44:54;6.90;99.90
3186;DHT22;1604;53.700;10.252;2024-03-23T07:47:57;7.00;99.90
3186;DHT22;1604;53.700;10.252;2024-03-23T07:50:59;7.10;99.90
3186;DHT22;1604;53.700;10.252;2024-03-23T07:54:01;7.20;99.90
3186;DHT22;1604;53.700;10.252;2024-03-23T07:57:03;7.30;99.90
3186;DHT22;1604;53.700;10.252;2024-03-23T08:00:07;7.40;99.90
3186;DHT22;1604;53.700;10.252;2024-03-23T08:03:08;7.70;99.90
3186;DHT22;1604;53.700;10.252;2024-03-23T08:06:12;7.90;99.90
3186;DHT22;1604;53.700;10.252;2024-03-23T08:09:13;8.10;99.90
3186;DHT22;1604;53.700;10.252;2024-03-23T08:12:16;8.20;99.90
3186;DHT22;1604;53.700;10.252;2024-03-23T08:15:17;8.40;99.90
3186;DHT22;1604;53.700;10.252;2024-03-23T08:18:19;8.50;99.90
3186;DHT22;1604;53.700;10.252;2024-03-23T08:21:21;8.70;99.90
3186;DHT22;1604;53.700;10.252;2024-03-23T08:24:24;8.90;99.90
3186;DHT22;1604;53.700;10.252;2024-03-23T08:27:28;9.00;99.90
3186;DHT22;1604;53.700;10.252;2024-03-23T08:30:29;9.10;99.90
3186;DHT22;1604;53.700;10.252;2024-03-23T08:33:31;9.20;99.90
3186;DHT22;1604;53.700;10.252;2024-03-23T08:36:32;9.40;99.90
3186;DHT22;1604;53.700;10.252;2024-03-23T08:39:34;9.50;99.90
3186;DHT22;1604;53.700;10.252;2024-03-23T08:42:36;9.60;99.90
3186;DHT22;1604;53.700;10.252;2024-03-23T08:45:39;9.60;99.90
3186;DHT22;1604;53.700;10.252;2024-03-23T08:48:42;9.60;99.90
3186;DHT22;1604;53.700;10.252;2024-03-23T08:51:44;9.70;99.90
3186;DHT22;1604;53.700;10.252;2024-03-23T08:54:46;9.80;99.90
3186;DHT22;1604;53.700;10.252;2024-03-23T08:57:48;10.00;99.90
3186;DHT22;1604;53.700;10.252;2024-03-23T09:00:50;10.10;99.90
3186;DHT22;1604;53.700;10.252;2024-03-23T09:03:51;10.10;99.90
3186;DHT22;1604;53.700;10.252;2024-03-23T09:06:53;10.10;99.90
3186;DHT22;1604;53.700;10.252;2024-03-23T09:09:54;10.10;99.90
3186;DHT22;1604;53.700;10.252;2024-03-23T09:12:57;10.00;99.90
3186;DHT22;1604;53.700;10.252;2024-03-23T09:15:58;10.00;99.20
3186;DHT22;1604;53.700;10.252;2024-03-23T09:19:00;10.00;98.40
3186;DHT22;1604;53.700;10.252;2024-03-23T09:22:01;10.00;98.50
3186;DHT22;1604;53.700;10.252;2024-03-23T09:25:04;10.00;99.20
3186;DHT22;1604;53.700;10.252;2024-03-23T09:28:08;10.20;99.30
3186;DHT22;1604;53.700;10.252;2024-03-23T09:31:10;10.20;96.80
3186;DHT22;1604;53.700;10.252;2024-03-23T09:34:14;10.20;97.80
3186;DHT22;1604;53.700;10.252;2024-03-23T09:37:16;10.20;97.00
3186;DHT22;1604;53.700;10.252;2024-03-23T09:40:17;10.00;96.70
3186;DHT22;1604;53.700;10.252;2024-03-23T09:43:21;9.90;96.20
3186;DHT22;1604;53.700;10.252;2024-03-23T09:46:22;9.80;95.60
3186;DHT22;1604;53.700;10.252;2024-03-23T09:49:24;9.80;96.60
3186;DHT22;1604;53.700;10.252;2024-03-23T09:52:25;9.80;95.60
3186;DHT22;1604;53.700;10.252;2024-03-23T09:55:27;9.90;94.00
3186;DHT22;1604;53.700;10.252;2024-03-23T09:58:30;9.80;93.40
3186;DHT22;1604;53.700;10.252;2024-03-23T10:01:32;9.80;91.60
3186;DHT22;1604;53.700;10.252;2024-03-23T10:04:37;9.90;89.70
3186;DHT22;1604;53.700;10.252;2024-03-23T10:07:38;10.10;89.50
3186;DHT22;1604;53.700;10.252;2024-03-23T10:10:40;10.10;90.60
3186;DHT22;1604;53.700;10.252;2024-03-23T10:13:43;10.30;88.40
3186;DHT22;1604;53.700;10.252;2024-03-23T10:16:46;10.40;86.60
3186;DHT22;1604;53.700;10.252;2024-03-23T10:19:48;10.40;85.50
3186;DHT22;1604;53.700;10.252;2024-03-23T10:22:51;10.40;86.50
3186;DHT22;1604;53.700;10.252;2024-03-23T10:25:52;10.40;85.90
3186;DHT22;1604;53.700;10.252;2024-03-23T10:28:57;10.50;86.80
3186;DHT22;1604;53.700;10.252;2024-03-23T10:32:09;10.70;87.80
3186;DHT22;1604;53.700;10.252;2024-03-23T10:35:15;10.90;87.50
3186;DHT22;1604;53.700;10.252;2024-03-23T10:38:16;11.10;86.60
3186;DHT22;1604;53.700;10.252;2024-03-23T10:41:19;11.40;86.50
3186;DHT22;1604;53.700;10.252;2024-03-23T10:44:22;11.60;85.50
3186;DHT22;1604;53.700;10.252;2024-03-23T10:47:26;11.70;83.10
3186;DHT22;1604;53.700;10.252;2024-03-23T10:50:27;11.90;81.30
3186;DHT22;1604;53.700;10.252;2024-03-23T10:53:30;11.90;75.30
3186;DHT22;1604;53.700;10.252;2024-03-23T10:56:35;11.70;75.50
3186;DHT22;1604;53.700;10.252;2024-03-23T10:59:39;11.30;76.90
3186;DHT22;1604;53.700;10.252;2024-03-23T11:02:40;10.80;85.20
3186;DHT22;1604;53.700;10.252;2024-03-23T11:05:46;10.30;89.60
3186;DHT22;1604;53.700;10.252;2024-03-23T11:08:47;10.00;92.10
3186;DHT22;1604;53.700;10.252;2024-03-23T11:11:49;9.80;94.50
3186;DHT22;1604;53.700;10.252;2024-03-23T11:14:52;9.90;96.50
3186;DHT22;1604;53.700;10.252;2024-03-23T11:18:05;10.20;97.00
3186;DHT22;1604;53.700;10.252;2024-03-23T11:21:08;10.70;91.10
3186;DHT22;1604;53.700;10.252;2024-03-23T11:24:14;11.00;82.20
3186;DHT22;1604;53.700;10.252;2024-03-23T11:27:16;11.00;79.60
3186;DHT22;1604;53.700;10.252;2024-03-23T11:30:21;10.90;81.40
3186;DHT22;1604;53.700;10.252;2024-03-23T11:33:23;10.80;82.30
3186;DHT22;1604;53.700;10.252;2024-03-23T11:36:25;10.60;81.40
3186;DHT22;1604;53.700;10.252;2024-03-23T11:39:27;10.50;83.20
3186;DHT22;1604;53.700;10.252;2024-03-23T11:42:28;10.50;84.50
3186;DHT22;1604;53.700;10.252;2024-03-23T11:45:34;10.40;82.00
3186;DHT22;1604;53.700;10.252;2024-03-23T11:48:37;10.40;81.40
3186;DHT22;1604;53.700;10.252;2024-03-23T11:51:37;10.20;82.30
3186;DHT22;1604;53.700;10.252;2024-03-23T11:54:40;10.10;81.60
3186;DHT22;1604;53.700;10.252;2024-03-23T11:57:41;10.00;81.90
3186;DHT22;1604;53.700;10.252;2024-03-23T12:00:50;9.90;78.10
3186;DHT22;1604;53.700;10.252;2024-03-23T12:03:52;9.80;78.40
3186;DHT22;1604;53.700;10.252;2024-03-23T12:07:12;9.80;76.20
3186;DHT22;1604;53.700;10.252;2024-03-23T12:10:19;9.90;78.20
3186;DHT22;1604;53.700;10.252;2024-03-23T12:13:21;10.10;77.10
3186;DHT22;1604;53.700;10.252;2024-03-23T12:16:24;10.20;78.10
3186;DHT22;1604;53.700;10.252;2024-03-23T12:19:28;10.10;83.20
3186;DHT22;1604;53.700;10.252;2024-03-23T12:22:30;9.50;89.80
3186;DHT22;1604;53.700;10.252;2024-03-23T12:25:31;8.70;95.40
3186;DHT22;1604;53.700;10.252;2024-03-23T12:28:33;8.10;98.90
3186;DHT22;1604;53.700;10.252;2024-03-23T12:31:36;7.60;99.90
3186;DHT22;1604;53.700;10.252;2024-03-23T12:34:37;7.10;99.10
3186;DHT22;1604;53.700;10.252;2024-03-23T12:37:40;6.90;98.90
3186;DHT22;1604;53.700;10.252;2024-03-23T12:40:40;6.90;99.50
3186;DHT22;1604;53.700;10.252;2024-03-23T12:43:42;6.80;99.90
3186;DHT22;1604;53.700;10.252;2024-03-23T12:46:45;6.80;99.90
3186;DHT22;1604;53.700;10.252;2024-03-23T12:49:47;6.80;99.90
3186;DHT22;1604;53.700;10.252;2024-03-23T12:52:50;7.00;99.90
3186;DHT22;1604;53.700;10.252;2024-03-23T12:55:52;7.30;99.90
3186;DHT22;1604;53.700;10.252;2024-03-23T12:58:54;7.70;99.90
3186;DHT22;1604;53.700;10.252;2024-03-23T13:01:57;8.00;99.90
3186;DHT22;1604;53.700;10.252;2024-03-23T13:04:59;8.10;99.90
3186;DHT22;1604;53.700;10.252;2024-03-23T13:08:00;8.00;99.90
3186;DHT22;1604;53.700;10.252;2024-03-23T13:11:02;7.80;99.90
3186;DHT22;1604;53.700;10.252;2024-03-23T13:14:05;7.60;99.90
3186;DHT22;1604;53.700;10.252;2024-03-23T13:17:08;7.30;99.90
3186;DHT22;1604;53.700;10.252;2024-03-23T13:20:10;7.10;99.90
3186;DHT22;1604;53.700;10.252;2024-03-23T13:23:15;7.00;99.90
3186;DHT22;1604;53.700;10.252;2024-03-23T13:26:16;6.90;99.70
3186;DHT22;1604;53.700;10.252;2024-03-23T13:29:18;7.00;99.90
3186;DHT22;1604;53.700;10.252;2024-03-23T13:32:21;7.10;99.90
3186;DHT22;1604;53.700;10.252;2024-03-23T13:35:22;7.30;99.90
3186;DHT22;1604;53.700;10.252;2024-03-23T13:38:23;7.60;99.90
3186;DHT22;1604;53.700;10.252;2024-03-23T13:41:25;7.80;99.90
3186;DHT22;1604;53.700;10.252;2024-03-23T13:44:27;8.10;99.20
3186;DHT22;1604;53.700;10.252;2024-03-23T13:47:31;8.20;99.80
3186;DHT22;1604;53.700;10.252;2024-03-23T13:50:32;8.30;98.30
3186;DHT22;1604;53.700;10.252;2024-03-23T13:53:34;8.00;98.00
3186;DHT22;1604;53.700;10.252;2024-03-23T13:56:35;7.70;98.80
3186;DHT22;1604;53.700;10.252;2024-03-23T13:59:37;7.40;99.90
3186;DHT22;1604;53.700;10.252;2024-03-23T14:02:39;7.10;99.90
3186;DHT22;1604;53.700;10.252;2024-03-23T14:05:41;6.80;99.90
3186;DHT22;1604;53.700;10.252;2024-03-23T14:08:42;6.70;99.90
3186;DHT22;1604;53.700;10.252;2024-03-23T14:11:44;6.70;99.90
3186;DHT22;1604;53.700;10.252;2024-03-23T14:14:45;6.80;99.90
3186;DHT22;1604;53.700;10.252;2024-03-23T14:17:49;6.90;99.90
3186;DHT22;1604;53.700;10.252;2024-03-23T14:20:50;7.00;99.90
3186;DHT22;1604;53.700;10.252;2024-03-23T14:23:52;7.10;99.90
3186;DHT22;1604;53.700;10.252;2024-03-23T14:26:55;7.20;99.90
3186;DHT22;1604;53.700;10.252;2024-03-23T14:29:57;7.40;99.90
3186;DHT22;1604;53.700;10.252;2024-03-23T14:33:00;7.60;99.90
3186;DHT22;1604;53.700;10.252;2024-03-23T14:36:02;7.70;99.90
3186;DHT22;1604;53.700;10.252;2024-03-23T14:39:03;7.80;99.90
3186;DHT22;1604;53.700;10.252;2024-03-23T14:42:05;7.80;99.90
3186;DHT22;1604;53.700;10.252;2024-03-23T14:45:07;7.80;99.90
3186;DHT22;1604;53.700;10.252;2024-03-23T14:48:11;7.90;99.90
3186;DHT22;1604;53.700;10.252;2024-03-23T14:51:12;7.80;99.90
3186;DHT22;1604;53.700;10.252;2024-03-23T14:54:14;7.80;99.90
3186;DHT22;1604;53.700;10.252;2024-03-23T14:57:16;7.70;99.90
3186;DHT22;1604;53.700;10.252;2024-03-23T15:00:19;7.80;99.90
3186;DHT22;1604;53.700;10.252;2024-03-23T15:03:23;7.90;99.90
3186;DHT22;1604;53.700;10.252;2024-03-23T15:06:25;7.90;99.90
3186;DHT22;1604;53.700;10.252;2024-03-23T15:09:26;7.90;99.90
3186;DHT22;1604;53.700;10.252;2024-03-23T15:12:28;8.00;99.90
3186;DHT22;1604;53.700;10.252;2024-03-23T15:15:29;8.10;99.90
3186;DHT22;1604;53.700;10.252;2024-03-23T15:18:32;8.20;99.90
3186;DHT22;1604;53.700;10.252;2024-03-23T15:21:33;8.20;99.90
3186;DHT22;1604;53.700;10.252;2024-03-23T15:24:35;8.10;99.90
3186;DHT22;1604;53.700;10.252;2024-03-23T15:27:37;8.20;98.00
3186;DHT22;1604;53.700;10.252;2024-03-23T15:30:38;8.10;98.70
3186;DHT22;1604;53.700;10.252;2024-03-23T15:33:42;8.00;99.20
3186;DHT22;1604;53.700;10.252;2024-03-23T15:36:43;8.00;99.90
3186;DHT22;1604;53.700;10.252;2024-03-23T15:39:45;8.00;99.80
3186;DHT22;1604;53.700;10.252;2024-03-23T15:42:46;8.00;98.80
3186;DHT22;1604;53.700;10.252;2024-03-23T15:45:54;7.90;98.80
3186;DHT22;1604;53.700;10.252;2024-03-23T15:48:56;7.90;98.30
3186;DHT22;1604;53.700;10.252;2024-03-23T15:51:58;7.90;98.60
3186;DHT22;1604;53.700;10.252;2024-03-23T15:55:00;7.80;98.70
3186;DHT22;1604;53.700;10.252;2024-03-23T15:58:06;7.70;98.80
3186;DHT22;1604;53.700;10.252;2024-03-23T16:01:09;7.70;99.10
3186;DHT22;1604;53.700;10.252;2024-03-23T16:04:12;7.60;99.20
3186;DHT22;1604;53.700;10.252;2024-03-23T16:07:14;7.60;99.40
3186;DHT22;1604;53.700;10.252;2024-03-23T16:10:15;7.50;99.40
3186;DHT22;1604;53.700;10.252;2024-03-23T16:13:17;7.50;99.50
3186;DHT22;1604;53.700;10.252;2024-03-23T16:16:19;7.40;99.90
3186;DHT22;1604;53.700;10.252;2024-03-23T16:19:24;7.30;99.90
3186;DHT22;1604;53.700;10.252;2024-03-23T16:22:26;7.30;99.90
3186;DHT22;1604;53.700;10.252;2024-03-23T16:25:27;7.20;99.90
3186;DHT22;1604;53.700;10.252;2024-03-23T16:28:30;7.20;99.90
3186;DHT22;1604;53.700;10.252;2024-03-23T16:31:31;7.10;99.90
3186;DHT22;1604;53.700;10.252;2024-03-23T16:34:35;7.00;99.90
3186;DHT22;1604;53.700;10.252;2024-03-23T16:37:37;6.80;99.90
3186;DHT22;1604;53.700;10.252;2024-03-23T16:40:38;6.60;99.90
3186;DHT22;1604;53.700;10.252;2024-03-23T16:43:39;6.50;99.90
3186;DHT22;1604;53.700;10.252;2024-03-23T16:46:41;6.40;99.90
3186;DHT22;1604;53.700;10.252;2024-03-23T16:49:45;6.30;99.90
3186;DHT22;1604;53.700;10.252;2024-03-23T16:52:47;6.10;99.90
3186;DHT22;1604;53.700;10.252;2024-03-23T16:55:54;5.90;99.90
3186;DHT22;1604;53.700;10.252;2024-03-23T16:58:56;5.70;99.90
3186;DHT22;1604;53.700;10.252;2024-03-23T17:01:57;5.50;99.90
3186;DHT22;1604;53.700;10.252;2024-03-23T17:05:00;5.50;99.90
3186;DHT22;1604;53.700;10.252;2024-03-23T17:08:02;5.40;99.90
3186;DHT22;1604;53.700;10.252;2024-03-23T17:11:03;5.50;99.90
3186;DHT22;1604;53.700;10.252;2024-03-23T17:14:06;5.50;99.90
3186;DHT22;1604;53.700;10.252;2024-03-23T17:17:08;5.50;99.90
3186;DHT22;1604;53.700;10.252;2024-03-23T17:20:11;5.40;99.90
3186;DHT22;1604;53.700;10.252;2024-03-23T17:23:13;5.30;99.90
3186;DHT22;1604;53.700;10.252;2024-03-23T17:26:14;5.30;99.90
3186;DHT22;1604;53.700;10.252;2024-03-23T17:29:16;5.20;99.90
3186;DHT22;1604;53.700;10.252;2024-03-23T17:32:17;5.10;99.90
3186;DHT22;1604;53.700;10.252;2024-03-23T17:35:20;5.10;99.90
3186;DHT22;1604;53.700;10.252;2024-03-23T17:38:22;5.00;99.90
3186;DHT22;1604;53.700;10.252;2024-03-23T17:41:23;4.90;99.90
3186;DHT22;1604;53.700;10.252;2024-03-23T17:44:26;4.80;99.90
3186;DHT22;1604;53.700;10.252;2024-03-23T17:47:28;4.80;99.90
3186;DHT22;1604;53.700;10.252;2024-03-23T17:50:30;4.80;99.90
3186;DHT22;1604;53.700;10.252;2024-03-23T17:53:37;4.70;99.90
3186;DHT22;1604;53.700;10.252;2024-03-23T17:56:38;4.70;99.90
3186;DHT22;1604;53.700;10.252;2024-03-23T17:59:40;4.60;99.90
3186;DHT22;1604;53.700;10.252;2024-03-23T18:02:41;4.50;99.90
3186;DHT22;1604;53.700;10.252;2024-03-23T18:05:45;4.50;99.90
3186;DHT22;1604;53.700;10.252;2024-03-23T18:08:47;4.50;99.90
3186;DHT22;1604;53.700;10.252;2024-03-23T18:11:48;4.40;99.90
3186;DHT22;1604;53.700;10.252;2024-03-23T18:14:50;4.40;99.90
3186;DHT22;1604;53.700;10.252;2024-03-23T18:17:52;4.30;99.90
3186;DHT22;1604;53.700;10.252;2024-03-23T18:20:54;4.30;99.90
3186;DHT22;1604;53.700;10.252;2024-03-23T18:23:56;4.20;99.90
3186;DHT22;1604;53.700;10.252;2024-03-23T18:26:57;4.20;99.90
3186;DHT22;1604;53.700;10.252;2024-03-23T18:29:59;4.20;99.90
3186;DHT22;1604;53.700;10.252;2024-03-23T18:33:00;4.20;99.90
3186;DHT22;1604;53.700;10.252;2024-03-23T18:36:04;4.20;99.90
3186;DHT22;1604;53.700;10.252;2024-03-23T18:39:05;4.20;99.90
3186;DHT22;1604;53.700;10.252;2024-03-23T18:42:07;4.10;99.90
3186;DHT22;1604;53.700;10.252;2024-03-23T18:45:09;4.10;99.90
3186;DHT22;1604;53.700;10.252;2024-03-23T18:48:10;4.00;99.90
3186;DHT22;1604;53.700;10.252;2024-03-23T18:51:14;4.00;99.90
3186;DHT22;1604;53.700;10.252;2024-03-23T18:54:16;4.00;99.90
3186;DHT22;1604;53.700;10.252;2024-03-23T18:57:18;4.00;99.90
3186;DHT22;1604;53.700;10.252;2024-03-23T19:00:19;3.90;99.90
3186;DHT22;1604;53.700;10.252;2024-03-23T19:03:21;4.00;99.90
3186;DHT22;1604;53.700;10.252;2024-03-23T19:06:23;3.90;99.90
3186;DHT22;1604;53.700;10.252;2024-03-23T19:09:26;3.90;99.90
3186;DHT22;1604;53.700;10.252;2024-03-23T19:12:28;3.90;99.90
3186;DHT22;1604;53.700;10.252;2024-03-23T19:15:29;3.90;99.90
3186;DHT22;1604;53.700;10.252;2024-03-23T19:18:31;3.90;99.90
3186;DHT22;1604;53.700;10.252;2024-03-23T19:21:35;3.90;99.90
3186;DHT22;1604;53.700;10.252;2024-03-23T19:24:37;3.90;99.90
3186;DHT22;1604;53.700;10.252;2024-03-23T19:27:38;3.90;99.90
3186;DHT22;1604;53.700;10.252;2024-03-23T19:30:41;3.90;99.90
3186;DHT22;1604;53.700;10.252;2024-03-23T19:33:42;4.00;99.90
3186;DHT22;1604;53.700;10.252;2024-03-23T19:36:47;4.00;99.90
3186;DHT22;1604;53.700;10.252;2024-03-23T19:39:48;3.90;99.90
3186;DHT22;1604;53.700;10.252;2024-03-23T19:42:49;3.90;99.90
3186;DHT22;1604;53.700;10.252;2024-03-23T19:45:51;3.90;99.90
3186;DHT22;1604;53.700;10.252;2024-03-23T19:48:53;3.90;99.90
3186;DHT22;1604;53.700;10.252;2024-03-23T19:51:56;3.80;99.90
3186;DHT22;1604;53.700;10.252;2024-03-23T19:54:57;3.80;99.90
3186;DHT22;1604;53.700;10.252;2024-03-23T19:57:59;3.70;99.90
3186;DHT22;1604;53.700;10.252;2024-03-23T20:01:04;3.70;99.90
3186;DHT22;1604;53.700;10.252;2024-03-23T20:04:05;3.80;99.90
3186;DHT22;1604;53.700;10.252;2024-03-23T20:07:09;3.80;99.90
3186;DHT22;1604;53.700;10.252;2024-03-23T20:10:10;3.80;99.90
3186;DHT22;1604;53.700;10.252;2024-03-23T20:13:12;3.90;99.90
3186;DHT22;1604;53.700;10.252;2024-03-23T20:16:13;3.90;99.90
3186;DHT22;1604;53.700;10.252;2024-03-23T20:19:15;4.00;99.90
3186;DHT22;1604;53.700;10.252;2024-03-23T20:22:17;4.10;99.90
3186;DHT22;1604;53.700;10.252;2024-03-23T20:25:19;4.20;99.90
3186;DHT22;1604;53.700;10.252;2024-03-23T20:28:22;4.30;99.90
3186;DHT22;1604;53.700;10.252;2024-03-23T20:31:24;4.30;99.90
3186;DHT22;1604;53.700;10.252;2024-03-23T20:34:26;4.30;99.90
3186;DHT22;1604;53.700;10.252;2024-03-23T20:37:30;4.30;99.90
3186;DHT22;1604;53.700;10.252;2024-03-23T20:40:31;4.20;99.90